Mount Hermon, Louisiana
Current Conditions -  °F | °C
As of 4:35 PM on Friday 19 Dec 2014 (Local Time) from KMCB Reporting Station
Moderate Rain Moderate Rain  
Wind Chill: 42°   Ceiling: 2200
Heat Index: 45°   Visibility: 4mi
Dew Point: 42°   Wind: 6mph
Humidity: 90%   Direction: 20°NNE
Pressure: 30.13"   Gusts: NA
Location:  30.96°N, 90.3°W
Report Text: KMCB 192235Z AUTO 02005KT 4SM RA BR FEW008 BKN022 OVC048 07/06 A3013 RMK AO2 P0005 T00720056
Loading
Personal Weather Stations






























Interactive Weather Map New forecast layout! Learn more

10-Day Weather Forecast

Advertisements
Track Severe Weather on mobile